Time;durP1;ratioP1;P1;durP2;ratioP2;P2;SDS_P1;SDS_P2;PMS_P1;PMS_P2;Temp;Humidity;BMP_temperature;BMP_pressure;BME280_temperature;BME280_humidity;BME280_pressure;Samples;Min_cycle;Max_cycle;Signal;HPM_P1;HPM_P2
2022/02/20 00:01:24;;;;;;;3.97;0.98;;;2.80;99.90;;;;;;5068010;28;20041;-89
2022/02/20 00:03:51;;;;;;;1.10;0.80;;;2.80;99.90;;;;;;5067517;28;20049;-88
2022/02/20 00:06:18;;;;;;;4.30;1.33;;;2.90;99.90;;;;;;5035898;28;20069;-87
2022/02/20 00:08:45;;;;;;;3.40;1.00;;;3.00;99.90;;;;;;5035654;28;20049;-87
2022/02/20 00:11:12;;;;;;;4.05;1.23;;;3.10;99.90;;;;;;5035001;28;20136;-90
2022/02/20 00:13:38;;;;;;;3.38;1.30;;;3.20;99.90;;;;;;5034905;28;20391;-88
2022/02/20 00:16:05;;;;;;;7.10;1.70;;;3.30;99.90;;;;;;5035751;28;20054;-91
2022/02/20 00:18:32;;;;;;;3.70;1.02;;;3.30;99.90;;;;;;5067483;28;20077;-90
2022/02/20 00:20:59;;;;;;;2.80;1.27;;;3.30;99.90;;;;;;5034172;28;20053;-90
2022/02/20 00:23:26;;;;;;;1.90;1.23;;;3.30;99.90;;;;;;5034483;28;20048;-88
2022/02/20 00:25:53;;;;;;;3.60;1.10;;;3.20;99.90;;;;;;5067449;28;20490;-90
2022/02/20 00:28:20;;;;;;;4.38;1.40;;;3.20;99.90;;;;;;5034436;28;20052;-92
2022/02/20 00:30:47;;;;;;;3.08;1.30;;;3.20;99.90;;;;;;5034603;28;20046;-91
2022/02/20 00:33:14;;;;;;;5.03;1.40;;;3.20;99.90;;;;;;5034087;28;20053;-88
2022/02/20 00:35:41;;;;;;;3.67;1.13;;;3.20;99.90;;;;;;5034882;28;20512;-88
2022/02/20 00:38:09;;;;;;;2.63;0.85;;;3.10;99.90;;;;;;5034129;28;20045;-90
2022/02/20 00:40:36;;;;;;;2.40;1.02;;;3.20;99.90;;;;;;5034173;28;20383;-90
2022/02/20 00:43:03;;;;;;;4.38;1.10;;;3.30;99.90;;;;;;5035333;28;20136;-89
2022/02/20 00:45:31;;;;;;;2.58;0.77;;;3.40;99.90;;;;;;5033754;28;20050;-90
2022/02/20 00:47:58;;;;;;;4.20;0.85;;;3.30;99.90;;;;;;5033838;28;20482;-91
2022/02/20 00:50:26;;;;;;;1.58;0.80;;;3.30;99.90;;;;;;5035035;28;20387;-89
2022/02/20 00:52:54;;;;;;;1.42;0.70;;;3.30;99.90;;;;;;5034167;28;20057;-88
2022/02/20 00:55:21;;;;;;;1.40;0.60;;;3.30;99.90;;;;;;5035015;28;20053;-90
2022/02/20 00:57:47;;;;;;;0.85;0.60;;;3.30;99.90;;;;;;5034205;28;20137;-88
2022/02/20 01:00:15;;;;;;;1.58;0.60;;;3.40;99.90;;;;;;5033802;28;20505;-88
2022/02/20 01:02:42;;;;;;;0.85;0.40;;;3.40;99.90;;;;;;5066589;28;20096;-86
2022/02/20 01:05:10;;;;;;;1.27;0.40;;;3.40;99.90;;;;;;5035587;28;20045;-87
2022/02/20 01:07:38;;;;;;;1.48;0.88;;;3.40;99.90;;;;;;5035038;28;20482;-91
2022/02/20 01:10:08;;;;;;;0.45;0.45;;;3.40;99.90;;;;;;5034729;28;20141;-90
2022/02/20 01:12:35;;;;;;;0.93;0.47;;;3.40;99.90;;;;;;5034763;28;20045;-95
2022/02/20 01:15:07;;;;;;;0.93;0.50;;;3.50;99.90;;;;;;5034063;28;20135;-88
2022/02/20 01:17:33;;;;;;;2.13;0.60;;;3.40;99.90;;;;;;5035242;28;20489;-91
2022/02/20 01:20:00;;;;;;;0.50;0.50;;;3.50;99.90;;;;;;5033951;28;20049;-90
2022/02/20 01:22:28;;;;;;;0.75;0.40;;;3.50;99.90;;;;;;5034117;28;20140;-90
2022/02/20 01:24:56;;;;;;;1.98;0.73;;;3.50;99.90;;;;;;5035931;28;20077;-87
2022/02/20 01:27:24;;;;;;;1.55;0.60;;;3.40;99.90;;;;;;5037330;28;20522;-91
2022/02/20 01:29:51;;;;;;;0.43;0.40;;;3.40;99.90;;;;;;5033643;28;20487;-92
2022/02/20 01:32:18;;;;;;;5.47;0.60;;;3.40;99.90;;;;;;5033576;28;20079;-90
2022/02/20 01:34:44;;;;;;;0.50;0.50;;;3.40;99.90;;;;;;5033702;28;20056;-91
2022/02/20 01:37:11;;;;;;;0.70;0.43;;;3.40;99.90;;;;;;5066648;28;20473;-91
2022/02/20 01:39:38;;;;;;;1.20;0.70;;;3.50;99.90;;;;;;5033783;28;20053;-89
2022/02/20 01:42:05;;;;;;;1.17;0.80;;;3.60;99.90;;;;;;5033499;28;20045;-91
2022/02/20 01:44:33;;;;;;;0.77;0.52;;;3.60;99.90;;;;;;5033822;28;20069;-89
2022/02/20 01:47:06;;;;;;;0.70;0.70;;;3.60;99.90;;;;;;5033643;28;20152;-88
2022/02/20 01:49:33;;;;;;;3.95;1.25;;;3.70;99.90;;;;;;5034127;28;20128;-91
2022/02/20 01:52:00;;;;;;;1.92;0.63;;;3.70;99.90;;;;;;5033160;28;20051;-92
2022/02/20 01:54:27;;;;;;;1.65;0.90;;;3.70;99.90;;;;;;5033427;28;20523;-89
2022/02/20 01:56:55;;;;;;;2.65;0.70;;;3.80;99.90;;;;;;5033866;28;20052;-91
2022/02/20 01:59:26;;;;;;;3.22;0.80;;;3.80;99.90;;;;;;5034620;28;20405;-91
2022/02/20 02:01:57;;;;;;;2.47;0.82;;;3.80;99.90;;;;;;5036700;28;20500;-92
2022/02/20 02:04:26;;;;;;;4.05;1.10;;;3.90;99.90;;;;;;5037565;28;20045;-92
2022/02/20 02:06:52;;;;;;;2.22;0.82;;;3.90;99.90;;;;;;5036746;28;20056;-92
2022/02/20 02:09:19;;;;;;;1.33;0.70;;;4.00;99.90;;;;;;5071200;28;20486;-90
2022/02/20 02:11:47;;;;;;;3.28;0.80;;;4.00;99.90;;;;;;5035256;28;20049;-89
2022/02/20 02:14:14;;;;;;;2.83;1.00;;;4.00;99.90;;;;;;5034976;28;20054;-90
2022/02/20 02:16:41;;;;;;;2.55;1.00;;;4.10;99.90;;;;;;5033446;28;20053;-89
2022/02/20 02:19:08;;;;;;;3.55;1.00;;;4.00;99.90;;;;;;5034672;28;20088;-92
2022/02/20 02:21:35;;;;;;;2.95;0.90;;;4.00;99.90;;;;;;5069147;28;20577;-91
2022/02/20 02:24:03;;;;;;;2.97;0.80;;;4.00;99.90;;;;;;5034778;28;20063;-89
2022/02/20 02:26:31;;;;;;;2.00;0.80;;;4.10;99.90;;;;;;5037560;28;20490;-92
2022/02/20 02:28:57;;;;;;;3.28;1.20;;;4.20;99.90;;;;;;5033095;28;20056;-93
2022/02/20 02:31:24;;;;;;;4.35;1.23;;;4.30;99.90;;;;;;5032981;28;20056;-89
2022/02/20 02:33:51;;;;;;;6.15;1.17;;;4.20;99.90;;;;;;5032711;28;20080;-91
2022/02/20 02:36:18;;;;;;;3.97;1.42;;;4.10;99.90;;;;;;5032675;28;20052;-88
2022/02/20 02:38:45;;;;;;;3.15;0.95;;;4.20;99.90;;;;;;5032772;28;20049;-91
2022/02/20 02:41:12;;;;;;;2.47;0.70;;;4.20;99.90;;;;;;5032572;28;20504;-88
2022/02/20 02:43:39;;;;;;;2.30;0.63;;;4.20;99.90;;;;;;5032511;28;20053;-90
2022/02/20 02:46:06;;;;;;;3.20;0.90;;;4.10;99.90;;;;;;5032161;28;20133;-90
2022/02/20 02:48:34;;;;;;;3.47;0.95;;;4.20;99.90;;;;;;5033337;28;20049;-90
2022/02/20 02:51:01;;;;;;;4.55;0.90;;;4.30;99.90;;;;;;5032803;28;20050;-89
2022/02/20 02:53:31;;;;;;;3.40;1.08;;;4.40;99.90;;;;;;5033627;28;20060;-90
2022/02/20 02:55:58;;;;;;;3.22;1.20;;;4.40;99.90;;;;;;5065595;28;20155;-91
2022/02/20 02:58:26;;;;;;;4.55;1.35;;;4.40;99.90;;;;;;5065546;28;20061;-91
2022/02/20 03:00:54;;;;;;;5.53;1.05;;;4.50;99.90;;;;;;5032338;28;20056;-88
2022/02/20 03:03:21;;;;;;;2.78;0.90;;;4.60;99.90;;;;;;5035416;28;20107;-90
2022/02/20 03:05:49;;;;;;;3.13;0.80;;;4.60;99.90;;;;;;5036709;28;20049;-89
2022/02/20 03:08:16;;;;;;;2.95;0.90;;;4.60;99.90;;;;;;5036648;28;20450;-90
2022/02/20 03:10:42;;;;;;;4.57;1.30;;;4.60;99.90;;;;;;5035519;28;20045;-89
2022/02/20 03:13:09;;;;;;;3.85;1.17;;;4.60;99.90;;;;;;5035870;28;20057;-91
2022/02/20 03:15:36;;;;;;;3.55;1.38;;;4.60;99.90;;;;;;5036139;28;20053;-89
2022/02/20 03:18:03;;;;;;;5.25;1.30;;;4.70;99.90;;;;;;5035540;28;20091;-90
2022/02/20 03:20:30;;;;;;;4.93;1.13;;;4.70;99.90;;;;;;5036045;28;20089;-91
2022/02/20 03:22:57;;;;;;;2.33;0.98;;;4.70;99.90;;;;;;5036748;28;20053;-91
2022/02/20 03:25:24;;;;;;;3.22;1.10;;;4.80;99.90;;;;;;5035874;28;20062;-90
2022/02/20 03:27:51;;;;;;;3.75;1.23;;;4.70;99.90;;;;;;5036629;28;20049;-90
2022/02/20 03:30:18;;;;;;;1.85;1.20;;;4.70;99.90;;;;;;5035517;28;20049;-92
2022/02/20 03:32:44;;;;;;;7.43;1.17;;;4.80;99.90;;;;;;5035188;28;20136;-90
2022/02/20 03:35:11;;;;;;;2.50;0.85;;;4.80;99.90;;;;;;5036639;28;20045;-92
2022/02/20 03:37:38;;;;;;;4.80;1.17;;;4.80;99.90;;;;;;5037470;28;20049;-92
2022/02/20 03:40:05;;;;;;;5.40;1.10;;;4.80;99.90;;;;;;5038013;28;20394;-89
2022/02/20 03:42:32;;;;;;;2.55;0.90;;;4.90;99.90;;;;;;5035226;28;20059;-89
2022/02/20 03:44:59;;;;;;;5.75;1.10;;;4.90;99.90;;;;;;5035023;28;20046;-89
2022/02/20 03:47:26;;;;;;;4.25;1.30;;;4.90;99.90;;;;;;5034961;28;20065;-90
2022/02/20 03:49:53;;;;;;;4.40;1.23;;;5.00;99.90;;;;;;5036428;28;20108;-93
2022/02/20 03:52:20;;;;;;;4.10;1.13;;;5.00;99.90;;;;;;5035056;28;20107;-90
2022/02/20 03:54:47;;;;;;;4.10;1.20;;;5.00;99.90;;;;;;5035016;28;20466;-90
2022/02/20 03:57:14;;;;;;;2.88;0.90;;;5.00;99.90;;;;;;5034975;28;20059;-90
2022/02/20 03:59:40;;;;;;;2.65;1.20;;;5.00;99.90;;;;;;5034606;28;20053;-91
2022/02/20 04:02:07;;;;;;;5.38;1.08;;;5.10;99.90;;;;;;5034392;28;20057;-90
2022/02/20 04:04:34;;;;;;;5.85;1.02;;;5.20;99.90;;;;;;5034752;28;20049;-90
2022/02/20 04:07:01;;;;;;;3.55;1.00;;;5.30;99.90;;;;;;5035084;28;20060;-91
2022/02/20 04:09:28;;;;;;;5.43;1.30;;;5.30;99.90;;;;;;5034665;28;20150;-90
2022/02/20 04:11:55;;;;;;;4.63;1.00;;;5.30;99.90;;;;;;5034393;28;20064;-89
2022/02/20 04:14:21;;;;;;;4.22;1.25;;;5.40;99.90;;;;;;5033754;28;20053;-92
2022/02/20 04:16:48;;;;;;;6.68;1.58;;;5.30;99.90;;;;;;5034713;28;20469;-90
2022/02/20 04:19:15;;;;;;;3.13;1.15;;;5.30;99.90;;;;;;5035549;28;20051;-91
2022/02/20 04:21:42;;;;;;;2.78;1.10;;;5.30;99.90;;;;;;5034905;28;20383;-88
2022/02/20 04:24:09;;;;;;;4.32;1.65;;;5.40;99.90;;;;;;5034265;28;20060;-89
2022/02/20 04:26:36;;;;;;;4.75;1.20;;;5.40;99.90;;;;;;5034556;28;20063;-90
2022/02/20 04:29:02;;;;;;;2.25;0.80;;;5.30;99.90;;;;;;5067032;28;20420;-89
2022/02/20 04:31:29;;;;;;;6.65;1.08;;;5.10;99.90;;;;;;5035395;28;20483;-89
2022/02/20 04:33:57;;;;;;;1.77;0.75;;;5.20;99.90;;;;;;5035415;28;20046;-90
2022/02/20 04:36:24;;;;;;;4.82;1.25;;;5.30;99.90;;;;;;5034243;28;20136;-89
2022/02/20 04:38:51;;;;;;;5.45;1.27;;;5.30;99.90;;;;;;5034261;28;20103;-88
2022/02/20 04:41:17;;;;;;;4.72;1.20;;;5.30;99.90;;;;;;5035085;28;20051;-89
2022/02/20 04:43:44;;;;;;;4.20;1.00;;;5.30;99.90;;;;;;5033970;28;20062;-89
2022/02/20 04:46:11;;;;;;;6.25;1.13;;;5.20;99.90;;;;;;5034000;28;20049;-89
2022/02/20 04:48:38;;;;;;;5.13;1.08;;;5.30;99.90;;;;;;5033897;28;20477;-89
2022/02/20 04:51:04;;;;;;;3.28;0.93;;;5.30;99.90;;;;;;5033698;28;20057;-89
2022/02/20 04:53:31;;;;;;;2.38;0.88;;;5.30;99.90;;;;;;5034967;28;20052;-90
2022/02/20 04:55:59;;;;;;;5.90;1.20;;;5.30;99.90;;;;;;5034165;28;20136;-90
2022/02/20 04:58:26;;;;;;;2.78;0.88;;;5.30;99.90;;;;;;5066652;28;20509;-88
2022/02/20 05:00:53;;;;;;;4.40;1.02;;;5.30;99.90;;;;;;5033695;28;20049;-88
2022/02/20 05:03:20;;;;;;;2.90;0.80;;;5.30;99.90;;;;;;5066335;28;20046;-89
2022/02/20 05:05:47;;;;;;;2.60;0.90;;;5.30;99.90;;;;;;5033693;28;20132;-89
2022/02/20 05:08:14;;;;;;;6.50;1.27;;;5.20;99.90;;;;;;5033460;28;20049;-89
2022/02/20 05:10:41;;;;;;;8.07;1.00;;;5.20;99.90;;;;;;5033345;28;20050;-89
2022/02/20 05:13:07;;;;;;;4.40;1.75;;;5.20;99.90;;;;;;5033560;28;20128;-89
2022/02/20 05:15:34;;;;;;;4.13;1.05;;;5.20;99.90;;;;;;5033453;28;20072;-89
2022/02/20 05:18:01;;;;;;;2.97;1.00;;;5.20;99.90;;;;;;5034371;28;20053;-89
2022/02/20 05:20:27;;;;;;;8.73;1.13;;;5.20;99.90;;;;;;5033202;28;20049;-90
2022/02/20 05:22:55;;;;;;;2.35;0.75;;;5.20;99.90;;;;;;5033444;28;20056;-88
2022/02/20 05:25:22;;;;;;;4.53;1.40;;;5.30;99.90;;;;;;5066057;28;20049;-88
2022/02/20 05:27:48;;;;;;;7.57;1.02;;;5.40;99.90;;;;;;5033377;28;20051;-89
2022/02/20 05:30:19;;;;;;;3.30;0.88;;;5.50;99.90;;;;;;5033097;28;20128;-89
2022/02/20 05:32:47;;;;;;;5.88;1.25;;;5.60;99.90;;;;;;5033420;28;20077;-89
2022/02/20 05:35:13;;;;;;;4.95;1.20;;;5.70;99.90;;;;;;5033816;28;20045;-89
2022/02/20 05:37:43;;;;;;;3.13;1.15;;;5.70;99.90;;;;;;5033042;28;20045;-89
2022/02/20 05:40:12;;;;;;;3.92;0.98;;;5.70;99.90;;;;;;5033057;28;20045;-88
2022/02/20 05:42:39;;;;;;;14.13;1.45;;;5.60;99.90;;;;;;5033801;28;20532;-89
2022/02/20 05:45:07;;;;;;;4.63;1.23;;;5.60;99.90;;;;;;5033185;28;20092;-88
2022/02/20 05:47:35;;;;;;;4.05;1.08;;;5.50;99.90;;;;;;5033929;28;20046;-89
2022/02/20 05:50:05;;;;;;;5.60;1.30;;;5.40;99.90;;;;;;5031449;28;20053;-89
2022/02/20 05:52:32;;;;;;;1.55;0.80;;;5.40;99.90;;;;;;5065811;28;20049;-90
2022/02/20 05:54:59;;;;;;;4.43;1.20;;;5.30;99.90;;;;;;5033647;28;20144;-89
2022/02/20 05:57:27;;;;;;;6.15;1.48;;;5.30;99.90;;;;;;5032753;28;20075;-89
2022/02/20 05:59:54;;;;;;;4.72;1.15;;;5.20;99.90;;;;;;5032554;28;20437;-89
2022/02/20 06:02:20;;;;;;;3.05;0.90;;;5.20;99.90;;;;;;5065377;28;20049;-89
2022/02/20 06:04:48;;;;;;;3.95;1.25;;;5.10;99.90;;;;;;5032847;28;20049;-90
2022/02/20 06:07:15;;;;;;;5.72;1.20;;;5.10;99.90;;;;;;5033680;28;20508;-89
2022/02/20 06:09:42;;;;;;;5.05;1.00;;;5.10;99.90;;;;;;5032638;28;20059;-89
2022/02/20 06:12:09;;;;;;;5.78;1.25;;;5.10;99.90;;;;;;5032805;28;20091;-89
2022/02/20 06:14:36;;;;;;;5.95;1.65;;;5.10;99.90;;;;;;5033819;28;20053;-88
2022/02/20 06:17:03;;;;;;;3.47;1.55;;;5.30;99.90;;;;;;5032981;28;20053;-90
2022/02/20 06:19:30;;;;;;;5.00;1.38;;;5.30;99.90;;;;;;5032769;28;20053;-89
2022/02/20 06:21:56;;;;;;;6.22;1.35;;;5.30;99.90;;;;;;5032525;28;20421;-88
2022/02/20 06:24:23;;;;;;;3.50;0.98;;;5.20;99.90;;;;;;5032921;28;20050;-88
2022/02/20 06:26:50;;;;;;;6.07;1.25;;;5.30;99.90;;;;;;5032639;28;20053;-89
2022/02/20 06:29:17;;;;;;;8.10;1.13;;;5.40;99.90;;;;;;5032816;28;20430;-89
2022/02/20 06:31:44;;;;;;;3.92;1.00;;;5.50;99.90;;;;;;5032338;28;20050;-89
2022/02/20 06:34:10;;;;;;;5.43;1.85;;;5.60;99.90;;;;;;5065732;28;20056;-89
2022/02/20 06:36:39;;;;;;;8.73;1.60;;;5.70;99.90;;;;;;5033361;28;20049;-89
2022/02/20 06:39:06;;;;;;;7.35;2.45;;;5.70;99.90;;;;;;5036715;28;20050;-89
2022/02/20 06:41:33;;;;;;;10.77;1.55;;;5.70;99.90;;;;;;5036497;28;20140;-89
2022/02/20 06:44:00;;;;;;;10.18;5.22;;;5.80;99.90;;;;;;5036743;28;20069;-89
2022/02/20 06:46:27;;;;;;;6.63;1.40;;;5.90;99.90;;;;;;5036373;28;20053;-89
2022/02/20 06:48:53;;;;;;;5.25;1.42;;;6.00;99.90;;;;;;5037048;28;20050;-90
2022/02/20 06:51:20;;;;;;;4.00;1.38;;;6.00;99.90;;;;;;5069099;28;20045;-90
2022/02/20 06:53:47;;;;;;;6.13;2.40;;;6.00;99.90;;;;;;5036123;28;20114;-89
2022/02/20 06:56:15;;;;;;;10.50;1.67;;;6.10;99.90;;;;;;5036091;28;20482;-90
2022/02/20 06:58:42;;;;;;;4.40;1.30;;;6.00;99.90;;;;;;5037032;28;20061;-89
2022/02/20 07:01:09;;;;;;;3.55;1.20;;;6.00;99.90;;;;;;5036235;28;20099;-89
2022/02/20 07:03:36;;;;;;;4.60;1.10;;;6.00;99.90;;;;;;5069087;28;20049;-91
2022/02/20 07:06:04;;;;;;;4.35;1.10;;;6.00;99.90;;;;;;5069000;28;20105;-89
2022/02/20 07:08:31;;;;;;;4.57;1.10;;;6.00;99.90;;;;;;5035927;28;20539;-89
2022/02/20 07:10:58;;;;;;;6.75;1.17;;;6.00;99.90;;;;;;5036686;28;20049;-89
2022/02/20 07:13:25;;;;;;;4.13;1.02;;;6.10;99.90;;;;;;5035970;28;20079;-89
2022/02/20 07:15:52;;;;;;;5.60;1.13;;;6.10;99.90;;;;;;5035545;28;20049;-90
2022/02/20 07:18:19;;;;;;;5.85;1.10;;;6.10;99.90;;;;;;5035606;28;20132;-89
2022/02/20 07:20:45;;;;;;;5.22;1.40;;;6.20;99.90;;;;;;5035818;28;20406;-90
2022/02/20 07:23:12;;;;;;;1.83;1.00;;;6.30;99.90;;;;;;5036071;28;20045;-89
2022/02/20 07:25:40;;;;;;;5.78;1.40;;;6.30;99.90;;;;;;5068675;28;20478;-91
2022/02/20 07:28:07;;;;;;;5.45;1.15;;;6.30;99.90;;;;;;5035249;28;20560;-89
2022/02/20 07:30:34;;;;;;;5.80;1.00;;;6.40;99.90;;;;;;5033600;28;20220;-90
2022/02/20 07:33:04;;;;;;;4.93;1.40;;;6.40;99.90;;;;;;5034663;28;20546;-90
2022/02/20 07:35:31;;;;;;;4.80;1.10;;;6.50;99.90;;;;;;5034889;28;20156;-90
2022/02/20 07:37:59;;;;;;;5.85;1.30;;;6.60;99.90;;;;;;5034613;28;20478;-89
2022/02/20 07:40:27;;;;;;;6.32;1.20;;;6.70;99.90;;;;;;5035526;28;20136;-89
2022/02/20 07:42:54;;;;;;;4.70;1.30;;;6.80;99.90;;;;;;5034386;28;20072;-90
2022/02/20 07:45:23;;;;;;;6.00;1.30;;;7.00;99.90;;;;;;5034543;28;20049;-89
2022/02/20 07:47:59;;;;;;;6.25;1.95;;;7.00;99.90;;;;;;5033662;28;20053;-89
2022/02/20 07:50:32;;;;;;;7.05;1.52;;;7.10;99.90;;;;;;5034018;28;20053;-89
2022/02/20 07:53:01;;;;;;;3.40;1.23;;;7.10;99.90;;;;;;5034855;28;20409;-90
2022/02/20 07:55:28;;;;;;;4.20;1.10;;;7.10;99.90;;;;;;5035065;28;20417;-90
2022/02/20 07:57:55;;;;;;;4.72;0.98;;;7.20;99.90;;;;;;5034823;28;20085;-89
2022/02/20 08:00:28;;;;;;;6.55;1.55;;;7.20;99.90;;;;;;5035070;28;20411;-90
2022/02/20 08:02:54;;;;;;;4.95;1.38;;;7.30;99.90;;;;;;5036086;28;20049;-90
2022/02/20 08:05:21;;;;;;;1.10;0.80;;;7.30;99.90;;;;;;5068115;28;20049;-89
2022/02/20 08:07:48;;;;;;;4.57;1.20;;;7.40;99.90;;;;;;5035502;28;20053;-93
2022/02/20 08:10:15;;;;;;;5.70;1.15;;;7.50;99.90;;;;;;5035014;28;20053;-90
2022/02/20 08:12:42;;;;;;;5.15;1.10;;;7.50;99.90;;;;;;5035504;28;20482;-92
2022/02/20 08:15:09;;;;;;;3.80;1.08;;;7.60;99.90;;;;;;5035494;28;20581;-90
2022/02/20 08:17:43;;;;;;;8.25;1.40;;;7.60;99.90;;;;;;5034440;28;20524;-90
2022/02/20 08:20:12;;;;;;;3.00;1.17;;;7.60;99.90;;;;;;5034561;28;20060;-89
2022/02/20 08:22:40;;;;;;;6.60;1.40;;;7.80;99.90;;;;;;5034550;28;20046;-88
2022/02/20 08:25:08;;;;;;;2.35;0.85;;;8.20;99.90;;;;;;5034527;28;20053;-90
2022/02/20 08:27:36;;;;;;;4.32;1.40;;;8.30;99.90;;;;;;5034768;28;20179;-89
2022/02/20 08:30:05;;;;;;;2.78;1.25;;;8.30;99.90;;;;;;5034221;28;20424;-88
2022/02/20 08:32:32;;;;;;;7.95;1.33;;;8.20;99.90;;;;;;5034669;28;20148;-89
2022/02/20 08:34:59;;;;;;;4.28;1.05;;;8.10;99.90;;;;;;5037552;28;20204;-88
2022/02/20 08:37:27;;;;;;;7.63;1.55;;;8.00;99.90;;;;;;5037800;28;20049;-89
2022/02/20 08:39:54;;;;;;;7.47;1.30;;;8.00;99.90;;;;;;5034702;28;20054;-89
2022/02/20 08:42:21;;;;;;;5.82;1.50;;;8.00;99.90;;;;;;5034880;28;20136;-89
2022/02/20 08:44:48;;;;;;;2.20;1.20;;;8.00;99.90;;;;;;5034156;28;20072;-89
2022/02/20 08:47:14;;;;;;;4.60;1.10;;;7.90;99.90;;;;;;5034681;28;20049;-89
2022/02/20 08:49:41;;;;;;;5.25;1.15;;;7.90;99.90;;;;;;5033855;28;20132;-88
2022/02/20 08:52:11;;;;;;;5.13;1.30;;;7.80;99.90;;;;;;5033769;28;20056;-89
2022/02/20 08:54:38;;;;;;;4.28;1.02;;;7.80;99.90;;;;;;5034526;28;20052;-90
2022/02/20 08:57:08;;;;;;;4.40;1.23;;;7.80;99.90;;;;;;5033944;28;20505;-89
2022/02/20 08:59:35;;;;;;;4.32;1.23;;;7.70;99.90;;;;;;5033329;28;20448;-90
2022/02/20 09:02:03;;;;;;;4.43;1.05;;;7.70;99.90;;;;;;5033945;28;20051;-90
2022/02/20 09:04:30;;;;;;;5.72;1.58;;;7.90;99.90;;;;;;5034389;28;20055;-90
2022/02/20 09:06:57;;;;;;;7.05;1.90;;;7.90;99.90;;;;;;5036385;28;20049;-90
2022/02/20 09:09:23;;;;;;;6.30;1.58;;;7.80;99.90;;;;;;5034029;28;20045;-89
2022/02/20 09:11:50;;;;;;;7.68;1.27;;;7.70;99.90;;;;;;5033933;28;20055;-91
2022/02/20 09:14:17;;;;;;;5.75;1.50;;;7.70;99.90;;;;;;5033655;28;20049;-91
2022/02/20 09:16:45;;;;;;;3.65;1.30;;;7.70;99.90;;;;;;5034622;28;20050;-88
2022/02/20 09:19:12;;;;;;;5.60;1.30;;;7.60;99.90;;;;;;5034867;28;20134;-89
2022/02/20 09:21:39;;;;;;;4.03;1.00;;;7.70;99.90;;;;;;5034252;28;20409;-89
2022/02/20 09:24:06;;;;;;;4.68;1.20;;;7.60;99.90;;;;;;5035176;28;20050;-91
2022/02/20 09:26:33;;;;;;;4.90;0.90;;;7.50;99.90;;;;;;5052206;28;20089;-90
2022/02/20 09:28:59;;;;;;;3.28;0.90;;;7.40;99.90;;;;;;5035203;28;20069;-90
2022/02/20 09:31:27;;;;;;;4.30;1.10;;;7.30;99.90;;;;;;5034556;28;20059;-89
2022/02/20 09:33:53;;;;;;;2.67;1.10;;;7.20;99.90;;;;;;5034788;28;20513;-90
2022/02/20 09:36:20;;;;;;;2.75;0.90;;;7.20;99.90;;;;;;5035415;28;20049;-91
2022/02/20 09:38:47;;;;;;;3.85;1.13;;;7.10;99.90;;;;;;5033873;28;20136;-90
2022/02/20 09:41:14;;;;;;;6.22;1.20;;;7.10;99.90;;;;;;5035284;28;20133;-91
2022/02/20 09:43:41;;;;;;;7.28;1.33;;;7.10;99.90;;;;;;5035809;28;20096;-92
2022/02/20 09:46:09;;;;;;;4.68;1.05;;;7.00;99.90;;;;;;5035386;28;20057;-91
2022/02/20 09:48:36;;;;;;;3.80;0.90;;;6.90;99.90;;;;;;5033783;28;20057;-89
2022/02/20 09:51:03;;;;;;;3.03;1.45;;;6.90;99.90;;;;;;5035363;28;20129;-91
2022/02/20 09:53:33;;;;;;;2.65;0.98;;;6.90;99.90;;;;;;5033424;28;20124;-91
2022/02/20 09:56:00;;;;;;;3.78;1.13;;;6.80;99.90;;;;;;5033863;28;20132;-90
2022/02/20 09:58:27;;;;;;;1.60;0.82;;;6.70;99.90;;;;;;5033202;28;20084;-90
2022/02/20 10:01:04;;;;;;;1.70;0.57;;;6.70;99.90;;;;;;5032682;28;20052;-90
2022/02/20 10:03:32;;;;;;;1.92;0.80;;;6.70;99.90;;;;;;5035580;28;20073;-90
2022/02/20 10:06:02;;;;;;;3.83;0.63;;;6.70;99.90;;;;;;5034542;28;20049;-91
2022/02/20 10:08:46;;;;;;;1.73;0.40;;;6.60;99.90;;;;;;5067683;28;20045;-90
2022/02/20 10:11:15;;;;;;;0.75;0.63;;;6.70;99.90;;;;;;5032074;28;20099;-89
2022/02/20 10:13:43;;;;;;;1.40;0.65;;;6.70;99.90;;;;;;5050553;28;20045;-89
2022/02/20 10:16:23;;;;;;;1.33;0.73;;;6.60;99.90;;;;;;5052312;28;20374;-88
2022/02/20 10:18:52;;;;;;;3.08;1.73;;;6.70;99.90;;;;;;5049092;28;20045;-89
2022/02/20 10:21:31;;;;;;;0.30;0.30;;;6.80;99.90;;;;;;5051888;28;20055;-90
2022/02/20 10:24:06;;;;;;;0.73;0.40;;;6.80;99.90;;;;;;5050016;28;20049;-90
2022/02/20 10:26:43;;;;;;;1.35;0.50;;;6.80;99.90;;;;;;5052142;28;20045;-89
2022/02/20 10:29:18;;;;;;;0.40;0.30;;;6.70;99.90;;;;;;5051305;28;20396;-91
2022/02/20 10:32:00;;;;;;;0.15;0.15;;;6.70;99.90;;;;;;5049646;28;20041;-90
2022/02/20 10:34:29;;;;;;;0.30;0.20;;;6.70;99.90;;;;;;5051644;28;20132;-89
2022/02/20 10:37:01;;;;;;;0.50;0.30;;;6.70;99.90;;;;;;5051963;28;20088;-89
2022/02/20 10:39:42;;;;;;;0.47;0.20;;;6.70;99.90;;;;;;5050663;28;20041;-90
2022/02/20 10:42:19;;;;;;;0.20;0.20;;;6.70;99.90;;;;;;5049509;28;20107;-90
2022/02/20 10:44:56;;;;;;;0.40;0.30;;;6.60;99.90;;;;;;5051738;28;20049;-91
2022/02/20 10:47:24;;;;;;;0.52;0.30;;;6.60;99.90;;;;;;5048859;28;20133;-90
2022/02/20 10:49:52;;;;;;;1.05;0.30;;;6.60;99.90;;;;;;5032242;28;20572;-90
2022/02/20 10:52:20;;;;;;;0.93;0.40;;;6.60;99.90;;;;;;5032511;28;20092;-91
2022/02/20 10:55:08;;;;;;;1.38;0.40;;;6.60;99.90;;;;;;5032670;28;20502;-91
2022/02/20 10:57:50;;;;;;;0.30;0.30;;;6.60;99.90;;;;;;5033284;28;20053;-90
2022/02/20 11:00:19;;;;;;;0.98;0.35;;;6.60;99.90;;;;;;5031980;28;20056;-89
2022/02/20 11:02:46;;;;;;;1.20;0.40;;;6.70;99.90;;;;;;5033077;28;20482;-89
2022/02/20 11:05:13;;;;;;;1.17;0.47;;;6.70;99.90;;;;;;5032883;28;20060;-91
2022/02/20 11:07:40;;;;;;;0.43;0.30;;;6.80;99.90;;;;;;5032845;28;20109;-90
2022/02/20 11:10:11;;;;;;;0.68;0.40;;;6.80;99.90;;;;;;5032977;28;20049;-89
2022/02/20 11:12:39;;;;;;;0.57;0.38;;;6.80;99.90;;;;;;5031928;28;20124;-89
2022/02/20 11:15:07;;;;;;;1.65;0.20;;;6.90;99.90;;;;;;5031952;28;20073;-91
2022/02/20 11:17:35;;;;;;;0.75;0.28;;;6.90;99.90;;;;;;5032910;28;20049;-88
2022/02/20 11:20:06;;;;;;;0.50;0.50;;;6.80;99.90;;;;;;5031778;28;20054;-90
2022/02/20 11:22:37;;;;;;;1.23;0.45;;;6.80;99.90;;;;;;5032975;28;20103;-88
2022/02/20 11:25:08;;;;;;;1.73;0.30;;;6.80;99.90;;;;;;5037346;28;20050;-91
2022/02/20 11:27:42;;;;;;;0.20;0.20;;;6.80;99.90;;;;;;5036186;28;20049;-91
2022/02/20 11:30:10;;;;;;;0.28;0.20;;;6.80;99.90;;;;;;5035498;28;20056;-89
2022/02/20 11:32:43;;;;;;;0.85;0.85;;;6.80;99.90;;;;;;5037772;28;20045;-90
2022/02/20 11:35:15;;;;;;;0.35;0.35;;;6.90;99.90;;;;;;5039331;28;20049;-88
2022/02/20 11:38:13;;;;;;;0.82;0.20;;;6.90;99.90;;;;;;5042451;28;20053;-89
2022/02/20 11:40:50;;;;;;;0.82;0.43;;;6.90;99.90;;;;;;5041913;28;20053;-89
2022/02/20 11:43:18;;;;;;;0.20;0.20;;;6.90;99.90;;;;;;5041080;28;20057;-89
2022/02/20 11:46:03;;;;;;;0.30;0.30;;;6.90;99.90;;;;;;5040894;28;20049;-89
2022/02/20 11:48:30;;;;;;;1.63;0.80;;;6.90;99.90;;;;;;5035464;28;20060;-90
2022/02/20 11:51:14;;;;;;;1.17;0.32;;;6.90;99.90;;;;;;5036111;28;20060;-91
2022/02/20 11:53:41;;;;;;;1.58;1.17;;;7.00;99.90;;;;;;5036581;28;20143;-92
2022/02/20 11:56:12;;;;;;;0.95;0.60;;;7.00;99.90;;;;;;5035358;28;20136;-89
2022/02/20 11:58:40;;;;;;;0.70;0.70;;;7.00;99.90;;;;;;5035215;28;20151;-91
2022/02/20 12:01:09;;;;;;;0.43;0.30;;;7.00;99.90;;;;;;5035203;28;20516;-89
2022/02/20 12:03:42;;;;;;;0.73;0.20;;;7.00;99.90;;;;;;5035703;28;20049;-89
2022/02/20 12:06:09;;;;;;;0.10;0.10;;;7.00;99.90;;;;;;5034553;28;20049;-92
2022/02/20 12:08:39;;;;;;;0.95;0.40;;;7.10;99.90;;;;;;5034318;28;20081;-90
2022/02/20 12:11:16;;;;;;;0.20;0.20;;;7.10;99.90;;;;;;5035259;28;20175;-91
2022/02/20 12:14:00;;;;;;;0.20;0.20;;;7.10;99.90;;;;;;5034628;28;20055;-89
2022/02/20 12:16:35;;;;;;;0.20;0.20;;;7.20;99.90;;;;;;5034557;28;20147;-89
2022/02/20 12:19:18;;;;;;;0.10;0.10;;;7.30;99.90;;;;;;5035039;28;20056;-91
2022/02/20 12:22:24;;;;;;;0.20;0.20;;;7.20;99.90;;;;;;5036369;28;20053;-89
2022/02/20 12:24:56;;;;;;;0.40;0.30;;;7.20;99.90;;;;;;5038060;28;20076;-89
2022/02/20 12:27:27;;;;;;;0.10;0.10;;;7.20;99.90;;;;;;5033991;28;20053;-90
2022/02/20 12:30:04;;;;;;;0.32;0.30;;;7.10;99.90;;;;;;5034092;28;20049;-90
2022/02/20 12:32:32;;;;;;;0.20;0.20;;;7.20;99.90;;;;;;5033840;28;20477;-91
2022/02/20 12:35:17;;;;;;;0.32;0.20;;;7.20;99.90;;;;;;5034278;28;20595;-91
2022/02/20 12:37:53;;;;;;;0.13;0.13;;;7.20;99.90;;;;;;5036281;28;20049;-89
2022/02/20 12:40:24;;;;;;;0.28;0.20;;;7.10;99.90;;;;;;5035509;28;20053;-91
2022/02/20 12:43:03;;;;;;;0.68;0.20;;;7.10;99.90;;;;;;5036671;28;20076;-91
2022/02/20 12:45:32;;;;;;;0.10;0.10;;;7.00;99.90;;;;;;5034479;28;20077;-90
2022/02/20 12:48:08;;;;;;;0.63;0.35;;;7.00;99.90;;;;;;5034164;28;20591;-90
2022/02/20 12:50:41;;;;;;;0.17;0.17;;;7.00;99.90;;;;;;5034943;28;20136;-90
2022/02/20 12:53:09;;;;;;;0.20;0.20;;;7.10;99.90;;;;;;5033781;28;20489;-90
2022/02/20 12:55:37;;;;;;;0.10;0.10;;;7.10;99.90;;;;;;5033589;28;20046;-93
2022/02/20 12:58:12;;;;;;;1.85;0.17;;;7.10;99.90;;;;;;5033034;28;20137;-88
2022/02/20 13:00:41;;;;;;;0.20;0.20;;;7.20;99.90;;;;;;5033671;28;20132;-90
2022/02/20 13:03:17;;;;;;;0.85;0.20;;;7.30;99.90;;;;;;5033225;28;20053;-91
2022/02/20 13:05:47;;;;;;;0.43;0.20;;;7.50;99.90;;;;;;5032855;28;20049;-91